首页
METAR-TAF:

METAR-TAF

机场 :

圣加仑, 瑞士

纬度: 47-29-06N, 经度: 009-33-43E, 海拔: 398米

当前天气观测

该预报发布于15分钟前的00:50 UTC
风速3节,风向南转南东,在东转东南南转西南之间变化
温度 2°C
湿度 93%
气压 1005 hPa
能见度10公里或以上
多云层高于3500英尺

METAR: LSZR 180050Z AUTO 16003KT 120V200 9999 BKN035 02/01 Q1005

时间: 02:05 (01:05 UTC)

预报

该预报发布于10小时和40分钟前的14:25 UTC
预报有效从17日的 15点(UTC)到 17日的 24点(UTC)
风速4节,风向西
能见度10公里或以上
多云层高于2000英尺
几率 40% :
短暂存在
从 17日的 15点(UTC)到 17日的 17点(UTC)
能見度: 4500
多云层高于1200英尺

TAF: LSZR 171425Z 1715/1724 27004KT 9999 BKN020 PROB40 TEMPO 1715/1717 4500 RA BKN012

超过4000个机场的气象观测和天气预报(METAR&TAF报告)。

可查询的气象台以黄色和红色小点在地图上表示。

将鼠标移到小点上方,可查看气象台名称。

然后点击查看天气观测和预报。

如需切换地图:点击带黑十字的绿色按钮放大地图;点击带横线的绿色按钮缩小地图;或者点击绿色箭头查看邻近地区的地图。


METAR-TAF: